VTBU

U-Tapao International Airport

Rayong, Thailand
TAF VTBU 242300Z 2500/2524 02004KT 6000 FEW020 SCT100 BECMG 2501/2503 19008KT 8000 TEMPO 2506/2511 VRB10KT 5000 -TSRA FEW018CB SCT035 BKN100
Issued Valid From Valid To
Sep-24 @ 23:00 UTC
(2 hours ago)
Sep-25 @ 00:00 UTC
(an hour ago)
Sep-26 @ 00:00 UTC
(in 23 hours)
Expired Click to View Sep-25 @ 00:00 to Sep-25 @ 01:00
TAF VTBU 242300Z 2500/2524 02004KT 6000 FEW020 SCT100
Wind Visibility Clouds
20° at 4 knots 6,003 meters
  • Few at 2,000' AGL
  • Scattered at 10,000' AGL
Becoming Sep-25 @ 01:00 to Sep-26 @ 00:00
BECMG 2501/2503 19008KT 8000
Wind Visibility Clouds
190° at 8 knots 7,998 meters
  • Few at 2,000' AGL
  • Scattered at 10,000' AGL
Temporary Sep-25 @ 06:00 to Sep-25 @ 11:00
TEMPO 2506/2511 VRB10KT 5000 -TSRA FEW018CB SCT035 BKN100
Wind Visibility Clouds Conditions
Variable at 10 knots 5,005 meters
  • Few at 1,800' AGL
  • Scattered at 3,500' AGL
  • Broken at 10,000' AGL
  • Light Thunderstorm
  • Light Rain
TAF VTBU 242300Z 2500/2524 02004KT 6000 FEW020 SCT100 BECMG 2501/2503 19008KT 8000 TEMPO 2506/2511 VRB10KT 5000 -TSRA FEW018CB SCT035 BKN100
Issued Sep-24 @ 23:00 UTC
(2 hours ago)
Valid From Sep-25 @ 00:00 UTC
(an hour ago)
Valid To Sep-26 @ 00:00 UTC
(in 23 hours)
Sep-25 @ 00:00 - Sep-25 @ 01:00
Wind Visibility
20° at 4 knots 6,003 meters
Clouds
  • Few at 2,000' AGL
  • Scattered at 10,000' AGL
Becoming Sep-25 @ 01:00 - Sep-26 @ 00:00
Wind Visibility
190° at 8 knots 7,998 meters
Clouds
  • Few at 2,000' AGL
  • Scattered at 10,000' AGL
Temporary Sep-25 @ 06:00 - Sep-25 @ 11:00
Wind Visibility
Variable at 10 knots 5,005 meters
Clouds
  • Few at 1,800' AGL
  • Scattered at 3,500' AGL
  • Broken at 10,000' AGL
Conditions
  • Light Thunderstorm
  • Light Rain